createdAt,value
2023-07-09T00:00:16.080Z,8.80
2023-07-09T00:02:43.418Z,9.48
2023-07-09T00:05:13.071Z,8.57
2023-07-09T00:07:40.443Z,8.73
2023-07-09T00:10:26.001Z,8.88
2023-07-09T00:15:20.883Z,8.82
2023-07-09T00:17:48.363Z,9.35
2023-07-09T00:20:18.708Z,9.75
2023-07-09T00:22:53.435Z,9.73
2023-07-09T00:25:21.358Z,8.30
2023-07-09T00:27:50.926Z,9.40
2023-07-09T00:30:20.226Z,9.10
2023-07-09T00:32:49.854Z,9.00
2023-07-09T00:35:17.360Z,8.95
2023-07-09T00:37:44.971Z,9.23
2023-07-09T00:40:19.765Z,9.02
2023-07-09T00:42:48.817Z,8.75
2023-07-09T00:45:24.118Z,8.27
2023-07-09T00:48:07.941Z,9.27
2023-07-09T00:50:48.265Z,8.95
2023-07-09T00:53:26.852Z,9.05
2023-07-09T00:55:57.663Z,9.20
2023-07-09T00:58:27.930Z,9.48
2023-07-09T01:00:57.463Z,9.15
2023-07-09T01:03:57.534Z,8.60
2023-07-09T01:06:36.822Z,10.23
2023-07-09T01:09:05.075Z,9.68
2023-07-09T01:11:34.059Z,9.77
2023-07-09T01:14:03.154Z,9.15
2023-07-09T01:16:34.025Z,8.77
2023-07-09T01:19:01.854Z,9.05
2023-07-09T01:21:29.375Z,8.07
2023-07-09T01:23:58.270Z,8.27
2023-07-09T01:26:27.219Z,9.38
2023-07-09T01:28:55.141Z,9.73
2023-07-09T01:31:24.390Z,8.70
2023-07-09T01:33:52.600Z,8.50
2023-07-09T01:36:24.497Z,9.48
2023-07-09T01:38:54.533Z,9.10
2023-07-09T01:41:23.258Z,8.73
2023-07-09T01:43:52.342Z,8.70
2023-07-09T01:46:20.367Z,8.85
2023-07-09T01:48:50.868Z,8.98
2023-07-09T01:51:18.323Z,8.60
2023-07-09T01:53:46.091Z,8.95
2023-07-09T01:56:13.478Z,8.88
2023-07-09T01:58:42.867Z,8.43
2023-07-09T02:01:11.725Z,9.93
2023-07-09T02:03:39.788Z,9.20
2023-07-09T02:06:10.839Z,8.25
2023-07-09T02:08:39.153Z,9.13
2023-07-09T02:11:06.627Z,8.68
2023-07-09T02:13:34.013Z,8.88
2023-07-09T02:16:02.095Z,8.27
2023-07-09T02:18:30.609Z,9.05
2023-07-09T02:21:01.664Z,8.50
2023-07-09T02:23:29.166Z,9.30
2023-07-09T02:25:56.894Z,8.63
2023-07-09T02:28:24.346Z,8.57
2023-07-09T02:30:51.938Z,9.02
2023-07-09T02:33:21.582Z,8.85
2023-07-09T02:35:49.000Z,8.82
2023-07-09T02:38:16.427Z,8.18
2023-07-09T02:40:44.097Z,8.50
2023-07-09T02:43:11.694Z,8.60
2023-07-09T02:45:39.366Z,8.32
2023-07-09T02:48:07.108Z,8.70
2023-07-09T02:50:35.213Z,8.27
2023-07-09T02:53:02.651Z,8.93
2023-07-09T02:55:30.947Z,9.10
2023-07-09T02:57:58.405Z,8.90
2023-07-09T03:00:25.781Z,8.95
2023-07-09T03:02:53.549Z,8.02
2023-07-09T03:05:21.065Z,8.00
2023-07-09T03:07:48.506Z,8.65
2023-07-09T03:10:16.197Z,8.23
2023-07-09T03:12:43.563Z,7.70
2023-07-09T03:15:12.394Z,8.30
2023-07-09T03:17:40.210Z,8.18
2023-07-09T03:20:09.021Z,8.60
2023-07-09T03:22:36.474Z,8.30
2023-07-09T03:25:04.322Z,9.15
2023-07-09T03:27:31.742Z,9.25
2023-07-09T03:29:59.237Z,8.63
2023-07-09T03:32:26.900Z,8.50
2023-07-09T03:34:54.441Z,8.88
2023-07-09T03:37:21.896Z,8.63
2023-07-09T03:39:49.549Z,8.55
2023-07-09T03:42:16.925Z,8.55
2023-07-09T03:44:44.399Z,8.85
2023-07-09T03:47:12.054Z,8.85
2023-07-09T03:49:39.511Z,8.40
2023-07-09T03:52:07.211Z,9.27
2023-07-09T03:54:34.879Z,8.48
2023-07-09T03:57:02.264Z,8.85
2023-07-09T03:59:29.636Z,8.40
2023-07-09T04:01:57.694Z,8.77
2023-07-09T04:04:25.434Z,8.93
2023-07-09T04:06:52.828Z,8.73
2023-07-09T04:09:20.239Z,8.55
2023-07-09T04:11:47.913Z,8.55
2023-07-09T04:14:15.361Z,8.25
2023-07-09T04:16:42.947Z,9.13
2023-07-09T04:19:10.735Z,8.27
2023-07-09T04:21:38.106Z,8.98
2023-07-09T04:24:05.951Z,8.63
2023-07-09T04:26:33.582Z,7.82
2023-07-09T04:29:00.982Z,8.75
2023-07-09T04:31:28.578Z,8.45
2023-07-09T04:33:56.354Z,9.05
2023-07-09T04:36:23.826Z,9.52
2023-07-09T04:38:51.221Z,8.70
2023-07-09T04:41:19.039Z,9.00
2023-07-09T04:43:46.438Z,8.38
2023-07-09T04:46:13.861Z,8.63
2023-07-09T04:48:41.577Z,8.75
2023-07-09T04:51:09.644Z,8.30
2023-07-09T04:53:37.689Z,8.30
2023-07-09T04:56:05.595Z,9.48
2023-07-09T04:58:33.310Z,9.30
2023-07-09T05:01:00.922Z,8.88
2023-07-09T05:03:28.625Z,9.10
2023-07-09T05:05:56.061Z,8.73
2023-07-09T05:08:23.913Z,8.98
2023-07-09T05:10:52.314Z,8.30
2023-07-09T05:13:19.780Z,9.10
2023-07-09T05:15:47.713Z,8.20
2023-07-09T05:18:15.565Z,8.40
2023-07-09T05:20:42.942Z,8.98
2023-07-09T05:23:10.610Z,8.43
2023-07-09T05:25:38.309Z,8.35
2023-07-09T05:28:05.964Z,8.00
2023-07-09T05:30:33.556Z,8.38
2023-07-09T05:33:01.338Z,8.27
2023-07-09T05:35:28.832Z,8.07
2023-07-09T05:37:56.384Z,7.82
2023-07-09T05:40:24.078Z,9.02
2023-07-09T05:42:51.453Z,8.63
2023-07-09T05:45:18.847Z,8.98
2023-07-09T05:47:46.510Z,8.88
2023-07-09T05:50:13.920Z,8.25
2023-07-09T05:52:41.341Z,9.00
2023-07-09T05:55:09.083Z,8.90
2023-07-09T05:57:36.483Z,8.05
2023-07-09T06:00:04.185Z,8.45
2023-07-09T06:02:40.872Z,8.27
2023-07-09T06:05:12.232Z,9.07
2023-07-09T06:07:39.737Z,8.50
2023-07-09T06:10:08.968Z,7.82
2023-07-09T06:12:36.749Z,8.15
2023-07-09T06:15:04.549Z,8.25
2023-07-09T06:17:33.142Z,7.80
2023-07-09T06:20:00.841Z,7.90
2023-07-09T06:22:28.263Z,8.57
2023-07-09T06:24:55.858Z,8.32
2023-07-09T06:27:23.622Z,9.43
2023-07-09T06:29:51.064Z,8.52
2023-07-09T06:32:18.534Z,8.50
2023-07-09T06:34:46.370Z,8.52
2023-07-09T06:37:13.858Z,7.87
2023-07-09T06:39:41.264Z,9.25
2023-07-09T06:42:09.038Z,8.80
2023-07-09T06:44:38.959Z,9.50
2023-07-09T06:47:06.525Z,9.30
2023-07-09T06:49:34.272Z,9.30
2023-07-09T06:52:01.645Z,9.50
2023-07-09T06:54:29.041Z,9.25
2023-07-09T06:56:56.734Z,8.57
2023-07-09T06:59:24.101Z,8.50
2023-07-09T07:01:51.542Z,8.07
2023-07-09T07:04:19.193Z,8.82
2023-07-09T07:06:48.289Z,8.15
2023-07-09T07:09:17.195Z,7.45
2023-07-09T07:11:44.857Z,7.95
2023-07-09T07:14:12.334Z,8.15
2023-07-09T07:16:39.900Z,7.93
2023-07-09T07:19:07.756Z,8.30
2023-07-09T07:21:35.751Z,8.57
2023-07-09T07:24:03.916Z,8.68
2023-07-09T07:26:31.615Z,8.20
2023-07-09T07:28:59.002Z,8.70
2023-07-09T07:31:26.440Z,8.32
2023-07-09T07:33:54.152Z,8.70
2023-07-09T07:36:30.247Z,8.52
2023-07-09T07:38:58.812Z,8.10
2023-07-09T07:41:26.678Z,9.30
2023-07-09T07:43:54.130Z,9.23
2023-07-09T07:46:21.813Z,10.25
2023-07-09T07:48:49.289Z,9.57
2023-07-09T07:51:16.825Z,9.35
2023-07-09T07:53:45.018Z,9.88
2023-07-09T07:56:12.742Z,9.32
2023-07-09T07:58:40.170Z,9.20
2023-07-09T08:01:08.210Z,8.85
2023-07-09T08:03:36.153Z,8.57
2023-07-09T08:06:03.721Z,8.50
2023-07-09T08:08:31.191Z,8.85
2023-07-09T08:11:06.079Z,8.35
2023-07-09T08:13:37.759Z,8.63
2023-07-09T08:16:06.546Z,8.35
2023-07-09T08:18:34.338Z,9.05
2023-07-09T08:21:01.805Z,9.32
2023-07-09T08:23:29.434Z,9.07
2023-07-09T08:25:57.474Z,9.23
2023-07-09T08:28:25.089Z,9.25
2023-07-09T08:30:54.143Z,9.10
2023-07-09T08:33:21.886Z,9.15
2023-07-09T08:35:52.548Z,9.90
2023-07-09T08:38:20.732Z,9.02
2023-07-09T08:41:15.182Z,9.10
2023-07-09T08:44:01.466Z,8.70
2023-07-09T08:46:54.262Z,9.00
2023-07-09T08:49:47.956Z,8.37
2023-07-09T08:52:30.963Z,9.15
2023-07-09T08:54:58.968Z,8.60
2023-07-09T08:57:28.681Z,9.40
2023-07-09T09:00:20.478Z,8.80
2023-07-09T09:02:53.085Z,8.65
2023-07-09T09:05:21.696Z,8.50
2023-07-09T09:08:10.683Z,8.27
2023-07-09T09:10:44.464Z,8.77
2023-07-09T09:13:15.323Z,8.23
2023-07-09T09:15:49.950Z,9.43
2023-07-09T09:18:28.320Z,8.32
2023-07-09T09:21:12.969Z,9.15
2023-07-09T09:23:42.513Z,8.40
2023-07-09T09:26:22.640Z,8.50
2023-07-09T09:28:50.477Z,9.00
2023-07-09T09:31:18.037Z,9.98
2023-07-09T09:33:46.961Z,9.68
2023-07-09T09:36:22.483Z,9.20
2023-07-09T09:38:51.718Z,9.07
2023-07-09T09:41:24.001Z,8.90
2023-07-09T09:43:54.772Z,9.57
2023-07-09T09:46:24.675Z,9.40
2023-07-09T09:48:55.463Z,8.90
2023-07-09T09:51:24.307Z,9.02
2023-07-09T09:53:53.113Z,8.38
2023-07-09T09:56:26.443Z,8.52
2023-07-09T09:58:55.644Z,9.45
2023-07-09T10:01:30.799Z,10.02
2023-07-09T10:04:00.030Z,9.25
2023-07-09T10:06:44.264Z,9.27
2023-07-09T10:09:38.205Z,8.98
2023-07-09T10:12:10.449Z,8.95
2023-07-09T10:14:39.628Z,8.98
2023-07-09T10:17:36.741Z,8.77
2023-07-09T10:20:37.747Z,8.80
2023-07-09T10:23:15.906Z,7.97
2023-07-09T10:25:49.529Z,8.57
2023-07-09T10:28:50.566Z,8.65
2023-07-09T10:31:32.913Z,9.30
2023-07-09T10:34:39.729Z,9.88
2023-07-09T10:37:26.240Z,9.85
2023-07-09T10:39:56.828Z,10.18
2023-07-09T10:42:45.281Z,8.63
2023-07-09T10:45:23.418Z,8.80
2023-07-09T10:47:54.930Z,10.07
2023-07-09T10:50:30.887Z,9.70
2023-07-09T10:53:02.135Z,9.02
2023-07-09T10:55:29.378Z,9.40
2023-07-09T10:58:01.727Z,9.20
2023-07-09T11:00:35.845Z,8.80
2023-07-09T11:03:25.852Z,8.87
2023-07-09T11:05:54.587Z,10.52
2023-07-09T11:08:25.067Z,9.43
2023-07-09T11:10:55.089Z,9.43
2023-07-09T11:13:52.620Z,10.30
2023-07-09T11:16:32.611Z,10.65
2023-07-09T11:19:01.815Z,10.63
2023-07-09T11:21:29.227Z,10.38
2023-07-09T11:24:00.839Z,10.27
2023-07-09T11:26:33.262Z,10.60
2023-07-09T11:29:03.373Z,10.32
2023-07-09T11:31:31.436Z,10.48
2023-07-09T11:34:08.482Z,10.60
2023-07-09T11:36:47.089Z,9.98
2023-07-09T11:39:41.753Z,10.38
2023-07-09T11:44:59.761Z,10.02
2023-07-09T11:50:00.377Z,10.20
2023-07-09T11:53:02.384Z,10.57
2023-07-09T11:55:41.696Z,10.15
2023-07-09T11:58:11.749Z,9.82
2023-07-09T12:00:41.162Z,10.25
2023-07-09T12:03:18.218Z,9.82
2023-07-09T12:05:53.450Z,11.30
2023-07-09T12:10:59.515Z,10.65
2023-07-09T12:13:27.182Z,11.00
2023-07-09T12:15:54.608Z,10.30
2023-07-09T12:18:22.048Z,9.75
2023-07-09T12:20:52.080Z,10.07
2023-07-09T12:23:29.680Z,10.13
2023-07-09T12:26:00.358Z,10.07
2023-07-09T12:28:28.412Z,10.50
2023-07-09T12:30:55.822Z,10.43
2023-07-09T12:35:59.935Z,9.75
2023-07-09T12:38:29.909Z,10.05
2023-07-09T12:40:57.364Z,10.15
2023-07-09T12:43:26.880Z,10.00
2023-07-09T12:45:54.809Z,11.40
2023-07-09T12:48:23.408Z,9.55
2023-07-09T12:50:51.290Z,10.18
2023-07-09T12:53:21.899Z,9.82
2023-07-09T12:55:51.368Z,10.05
2023-07-09T12:58:23.890Z,10.02
2023-07-09T13:00:55.318Z,9.68
2023-07-09T13:03:27.118Z,10.68
2023-07-09T13:05:59.533Z,10.63
2023-07-09T13:08:28.930Z,10.25
2023-07-09T13:10:57.167Z,10.00
2023-07-09T13:13:25.409Z,10.38
2023-07-09T13:15:58.121Z,10.45
2023-07-09T13:18:25.997Z,11.12
2023-07-09T13:20:55.589Z,10.38
2023-07-09T13:23:27.722Z,10.68
2023-07-09T13:25:57.723Z,10.18
2023-07-09T13:28:31.183Z,10.25
2023-07-09T13:31:00.840Z,10.40
2023-07-09T13:33:28.388Z,9.82
2023-07-09T13:35:55.812Z,10.07
2023-07-09T13:38:24.059Z,9.68
2023-07-09T13:40:54.652Z,10.02
2023-07-09T13:43:28.048Z,9.43
2023-07-09T13:45:57.949Z,10.43
2023-07-09T13:48:25.986Z,9.63
2023-07-09T13:50:53.835Z,9.65
2023-07-09T13:53:24.092Z,9.88
2023-07-09T13:55:52.013Z,10.15
2023-07-09T13:58:20.941Z,9.90
2023-07-09T14:00:49.074Z,9.88
2023-07-09T14:03:20.008Z,9.25
2023-07-09T14:05:47.625Z,10.00
2023-07-09T14:08:16.256Z,9.52
2023-07-09T14:10:44.273Z,9.73
2023-07-09T14:13:19.340Z,9.70
2023-07-09T14:15:47.023Z,9.13
2023-07-09T14:18:16.350Z,9.15
2023-07-09T14:20:44.118Z,10.05
2023-07-09T14:23:15.780Z,10.18
2023-07-09T14:25:43.392Z,10.25
2023-07-09T14:28:21.155Z,9.70
2023-07-09T14:30:50.151Z,9.93
2023-07-09T14:33:21.530Z,9.98
2023-07-09T14:35:49.280Z,10.18
2023-07-09T14:38:23.823Z,10.82
2023-07-09T14:40:56.392Z,9.88
2023-07-09T14:43:23.827Z,9.68
2023-07-09T14:45:51.254Z,9.98
2023-07-09T14:48:20.686Z,9.07
2023-07-09T14:50:48.131Z,9.40
2023-07-09T14:53:27.552Z,10.00
2023-07-09T14:55:55.594Z,8.95
2023-07-09T14:58:24.233Z,9.40
2023-07-09T15:00:51.741Z,9.20
2023-07-09T15:03:21.793Z,9.27
2023-07-09T15:05:49.501Z,9.73
2023-07-09T15:08:22.874Z,9.55
2023-07-09T15:10:51.355Z,9.80
2023-07-09T15:13:18.664Z,10.18
2023-07-09T15:15:46.131Z,10.07
2023-07-09T15:18:14.873Z,9.85
2023-07-09T15:20:44.356Z,10.32
2023-07-09T15:23:11.977Z,10.25
2023-07-09T15:25:39.640Z,10.15
2023-07-09T15:28:07.081Z,10.32
2023-07-09T15:30:34.451Z,10.38
2023-07-09T15:33:07.005Z,10.82
2023-07-09T15:35:37.324Z,10.30
2023-07-09T15:38:27.018Z,9.98
2023-07-09T15:40:54.464Z,9.20
2023-07-09T15:43:22.184Z,9.55
2023-07-09T15:45:51.662Z,9.48
2023-07-09T15:48:32.741Z,8.75
2023-07-09T15:51:04.407Z,9.07
2023-07-09T15:53:32.429Z,8.93
2023-07-09T15:56:01.473Z,8.85
2023-07-09T15:58:30.654Z,9.18
2023-07-09T16:00:58.034Z,9.15
2023-07-09T16:03:25.834Z,9.43
2023-07-09T16:05:53.380Z,9.65
2023-07-09T16:08:21.381Z,8.88
2023-07-09T16:10:49.067Z,8.70
2023-07-09T16:13:21.777Z,9.18
2023-07-09T16:15:49.852Z,9.27
2023-07-09T16:18:17.981Z,8.55
2023-07-09T16:20:45.429Z,9.63
2023-07-09T16:23:18.585Z,9.18
2023-07-09T16:25:46.253Z,10.02
2023-07-09T16:28:14.862Z,9.63
2023-07-09T16:30:42.321Z,10.90
2023-07-09T16:33:09.987Z,9.45
2023-07-09T16:35:37.815Z,8.43
2023-07-09T16:38:05.220Z,9.20
2023-07-09T16:40:32.929Z,9.20
2023-07-09T16:43:02.685Z,8.48
2023-07-09T16:45:30.284Z,8.52
2023-07-09T16:47:57.912Z,8.50
2023-07-09T16:50:26.175Z,7.95
2023-07-09T16:52:54.170Z,8.50
2023-07-09T16:55:27.475Z,9.07
2023-07-09T16:57:58.004Z,8.60
2023-07-09T17:00:30.100Z,8.93
2023-07-09T17:02:58.428Z,9.77
2023-07-09T17:05:26.738Z,8.82
2023-07-09T17:07:54.167Z,8.98
2023-07-09T17:10:21.862Z,8.68
2023-07-09T17:12:55.773Z,8.90
2023-07-09T17:15:24.454Z,9.15
2023-07-09T17:17:53.408Z,9.68
2023-07-09T17:20:21.084Z,10.13
2023-07-09T17:22:49.260Z,8.68
2023-07-09T17:25:33.663Z,9.20
2023-07-09T17:28:02.304Z,8.35
2023-07-09T17:30:30.348Z,8.65
2023-07-09T17:32:57.799Z,9.07
2023-07-09T17:35:26.447Z,8.93
2023-07-09T17:37:56.135Z,8.80
2023-07-09T17:40:43.216Z,10.60
2023-07-09T17:43:19.757Z,9.70
2023-07-09T17:48:32.099Z,10.57
2023-07-09T17:50:59.763Z,11.60
2023-07-09T17:53:28.943Z,12.43
2023-07-09T17:55:56.532Z,13.27
2023-07-09T17:58:28.316Z,14.77
2023-07-09T18:01:01.274Z,15.60
2023-07-09T18:03:29.235Z,15.05
2023-07-09T18:05:56.721Z,13.07
2023-07-09T18:08:24.227Z,14.02
2023-07-09T18:10:51.907Z,14.48
2023-07-09T18:13:26.030Z,13.57
2023-07-09T18:15:54.305Z,13.18
2023-07-09T18:18:21.888Z,12.18
2023-07-09T18:20:49.807Z,11.45
2023-07-09T18:23:17.543Z,11.65
2023-07-09T18:25:45.442Z,10.43
2023-07-09T18:28:29.867Z,9.75
2023-07-09T18:31:11.739Z,10.70
2023-07-09T18:33:44.226Z,9.57
2023-07-09T18:36:11.961Z,8.88
2023-07-09T18:38:39.431Z,8.60
2023-07-09T18:41:17.273Z,8.80
2023-07-09T18:43:48.201Z,9.30
2023-07-09T18:46:15.645Z,10.45
2023-07-09T18:48:43.085Z,9.15
2023-07-09T18:51:11.842Z,8.98
2023-07-09T18:53:39.542Z,9.48
2023-07-09T18:56:07.282Z,9.63
2023-07-09T18:58:37.156Z,8.52
2023-07-09T19:01:14.096Z,8.75
2023-07-09T19:03:41.792Z,9.13
2023-07-09T19:06:12.203Z,9.18
2023-07-09T19:08:41.699Z,8.15
2023-07-09T19:11:09.591Z,9.32
2023-07-09T19:13:37.263Z,9.07
2023-07-09T19:16:06.354Z,9.23
2023-07-09T19:18:36.745Z,10.02
2023-07-09T19:21:05.007Z,9.68
2023-07-09T19:23:32.933Z,9.18
2023-07-09T19:26:00.771Z,9.45
2023-07-09T19:28:28.255Z,9.75
2023-07-09T19:30:55.720Z,9.20
2023-07-09T19:33:25.168Z,8.77
2023-07-09T19:35:53.022Z,8.85
2023-07-09T19:38:20.534Z,8.35
2023-07-09T19:40:48.392Z,7.70
2023-07-09T19:43:16.212Z,7.85
2023-07-09T19:45:45.417Z,8.65
2023-07-09T19:48:14.941Z,8.88
2023-07-09T19:50:45.060Z,8.73
2023-07-09T19:53:24.216Z,9.70
2023-07-09T19:55:53.737Z,9.32
2023-07-09T19:58:23.259Z,8.60
2023-07-09T20:00:51.234Z,8.45
2023-07-09T20:03:28.039Z,9.13
2023-07-09T20:05:56.100Z,8.60
2023-07-09T20:08:24.388Z,8.95
2023-07-09T20:10:54.079Z,8.55
2023-07-09T20:13:30.836Z,9.65
2023-07-09T20:15:58.575Z,9.73
2023-07-09T20:18:26.115Z,9.15
2023-07-09T20:21:01.202Z,9.85
2023-07-09T20:23:29.480Z,9.45
2023-07-09T20:25:57.712Z,9.75
2023-07-09T20:28:26.518Z,9.75
2023-07-09T20:30:56.976Z,9.63
2023-07-09T20:33:24.777Z,10.43
2023-07-09T20:35:52.394Z,9.90
2023-07-09T20:38:25.477Z,10.18
2023-07-09T20:40:53.060Z,10.02
2023-07-09T20:43:26.456Z,9.48
2023-07-09T20:45:54.107Z,10.55
2023-07-09T20:48:22.019Z,9.95
2023-07-09T20:50:49.422Z,10.50
2023-07-09T20:53:17.713Z,10.07
2023-07-09T20:55:45.887Z,10.40
2023-07-09T20:58:17.744Z,10.80
2023-07-09T21:00:49.312Z,10.20
2023-07-09T21:03:18.256Z,10.13
2023-07-09T21:05:50.381Z,10.20
2023-07-09T21:08:20.173Z,9.75
2023-07-09T21:10:48.136Z,10.52
2023-07-09T21:13:17.989Z,10.13
2023-07-09T21:15:51.803Z,10.15
2023-07-09T21:18:19.823Z,9.88
2023-07-09T21:20:47.247Z,9.23
2023-07-09T21:23:23.884Z,9.25
2023-07-09T21:25:51.660Z,9.80
2023-07-09T21:28:19.138Z,9.30
2023-07-09T21:30:46.603Z,8.25
2023-07-09T21:33:15.996Z,9.07
2023-07-09T21:35:44.762Z,8.50
2023-07-09T21:38:23.458Z,9.20
2023-07-09T21:40:51.826Z,9.55
2023-07-09T21:43:19.430Z,9.18
2023-07-09T21:45:47.451Z,8.93
2023-07-09T21:48:17.130Z,9.13
2023-07-09T21:50:44.480Z,9.13
2023-07-09T21:53:16.331Z,9.75
2023-07-09T21:55:44.613Z,9.35
2023-07-09T21:58:12.702Z,9.50
2023-07-09T22:00:54.307Z,8.68
2023-07-09T22:03:24.122Z,9.85
2023-07-09T22:05:51.620Z,8.88
2023-07-09T22:08:20.352Z,9.10
2023-07-09T22:10:48.536Z,8.20
2023-07-09T22:13:17.059Z,8.90
2023-07-09T22:15:44.756Z,8.27
2023-07-09T22:18:17.338Z,8.95
2023-07-09T22:20:44.891Z,8.95
2023-07-09T22:23:23.129Z,9.48
2023-07-09T22:25:50.751Z,8.77
2023-07-09T22:28:18.676Z,9.15
2023-07-09T22:30:46.136Z,8.48
2023-07-09T22:33:13.660Z,8.88
2023-07-09T22:35:41.875Z,8.93
2023-07-09T22:38:27.522Z,8.77
2023-07-09T22:40:55.216Z,8.68
2023-07-09T22:43:22.786Z,8.95
2023-07-09T22:45:51.221Z,8.88
2023-07-09T22:48:19.390Z,8.68
2023-07-09T22:50:46.800Z,8.73
2023-07-09T22:53:15.597Z,9.68
2023-07-09T22:55:45.117Z,9.15
2023-07-09T22:58:13.989Z,8.38
2023-07-09T23:01:02.442Z,8.32
2023-07-09T23:03:37.760Z,8.63
2023-07-09T23:06:23.245Z,9.07
2023-07-09T23:08:51.403Z,8.93
2023-07-09T23:11:21.296Z,8.23
2023-07-09T23:13:48.735Z,9.32
2023-07-09T23:16:22.505Z,8.40
2023-07-09T23:18:50.165Z,9.15
2023-07-09T23:21:22.718Z,8.80
2023-07-09T23:23:54.828Z,8.70
2023-07-09T23:26:22.524Z,8.30
2023-07-09T23:28:50.167Z,8.63
2023-07-09T23:31:31.239Z,8.77
2023-07-09T23:33:59.516Z,8.90
2023-07-09T23:36:27.035Z,9.05
2023-07-09T23:38:54.554Z,9.25
2023-07-09T23:41:25.690Z,9.25
2023-07-09T23:43:53.787Z,9.57
2023-07-09T23:46:21.257Z,8.73
2023-07-09T23:48:57.069Z,9.15
2023-07-09T23:51:28.614Z,9.25
2023-07-09T23:53:56.280Z,9.35
2023-07-09T23:56:28.235Z,8.88
2023-07-09T23:58:56.029Z,9.55
